Time;durP1;ratioP1;P1;durP2;ratioP2;P2;SDS_P1;SDS_P2;PMS_P1;PMS_P2;Temp;Humidity;BMP_temperature;BMP_pressure;BME280_temperature;BME280_humidity;BME280_pressure;Samples;Min_cycle;Max_cycle;Signal;HPM_P1;HPM_P2
2023/11/07 00:01:26;;;;;;;1.30;1.20;;;;;;;21.95;58.16;97187.88;5024621;28;20614;-28
2023/11/07 00:03:53;;;;;;;1.43;1.33;;;;;;;21.96;58.31;97189.63;5018752;28;20226;-26
2023/11/07 00:06:20;;;;;;;1.27;1.20;;;;;;;21.96;58.31;97190.47;5015918;28;20313;-29
2023/11/07 00:08:47;;;;;;;1.47;1.37;;;;;;;21.94;58.36;97184.47;5010109;28;20306;-27
2023/11/07 00:11:14;;;;;;;1.30;1.20;;;;;;;21.95;58.59;97182.75;4999314;28;20661;-26
2023/11/07 00:13:42;;;;;;;1.10;1.10;;;;;;;21.97;58.40;97188.78;5018176;28;20499;-26
2023/11/07 00:16:12;;;;;;;1.37;1.27;;;;;;;21.94;58.42;97186.16;5012553;28;20252;-29
2023/11/07 00:18:40;;;;;;;1.40;1.30;;;;;;;21.98;58.30;97193.06;5011140;28;20206;-27
2023/11/07 00:21:07;;;;;;;1.13;1.10;;;;;;;21.97;58.35;97189.66;5019127;28;20689;-26
2023/11/07 00:23:34;;;;;;;1.10;1.10;;;;;;;21.99;58.36;97184.59;5023066;28;20226;-30
2023/11/07 00:26:01;;;;;;;1.27;1.17;;;;;;;21.98;58.24;97188.81;5012418;28;20238;-26
2023/11/07 00:28:28;;;;;;;1.27;1.27;;;;;;;21.98;58.21;97190.50;5017103;28;20360;-26
2023/11/07 00:30:55;;;;;;;1.27;1.17;;;;;;;21.98;58.33;97183.69;5017144;28;20214;-27
2023/11/07 00:33:21;;;;;;;1.30;1.20;;;;;;;21.98;58.35;97198.19;5016116;28;20288;-26
2023/11/07 00:35:48;;;;;;;1.40;1.20;;;;;;;21.97;58.42;97196.47;5020097;28;20209;-27
2023/11/07 00:38:14;;;;;;;1.20;1.17;;;;;;;21.96;58.21;97189.63;5018522;28;20206;-26
2023/11/07 00:40:41;;;;;;;1.10;1.10;;;;;;;21.97;58.37;97189.66;5013676;28;20669;-26
2023/11/07 00:43:08;;;;;;;1.27;1.20;;;;;;;21.95;58.44;97196.44;5014030;28;20257;-28
2023/11/07 00:45:34;;;;;;;1.17;1.13;;;;;;;21.93;58.14;97195.53;5016937;28;20659;-28
2023/11/07 00:48:01;;;;;;;1.30;1.20;;;;;;;21.87;58.17;97192.81;5013095;28;20581;-26
2023/11/07 00:50:28;;;;;;;1.30;1.20;;;;;;;21.96;58.40;97202.41;5012628;28;20285;-27
2023/11/07 00:52:54;;;;;;;1.30;1.20;;;;;;;21.94;58.46;97201.50;5019926;28;20701;-31
2023/11/07 00:55:21;;;;;;;1.07;1.07;;;;;;;21.96;58.45;97207.53;5017260;28;20681;-26
2023/11/07 00:57:48;;;;;;;1.30;1.20;;;;;;;21.97;58.48;97216.94;5013186;28;20202;-27
2023/11/07 01:00:15;;;;;;;1.30;1.20;;;;;;;21.97;58.46;97216.94;5010555;28;20568;-31
2023/11/07 01:02:41;;;;;;;1.10;1.10;;;;;;;21.97;58.42;97222.06;5015268;28;20226;-30
2023/11/07 01:05:10;;;;;;;1.10;1.10;;;;;;;21.97;58.25;97224.59;5011375;28;20632;-27
2023/11/07 01:07:37;;;;;;;1.30;1.20;;;;;;;21.99;58.36;97230.63;5011481;28;20218;-27
2023/11/07 01:10:04;;;;;;;1.30;1.20;;;;;;;21.98;58.33;97221.22;5013290;28;20198;-26
2023/11/07 01:12:30;;;;;;;1.87;1.30;;;;;;;21.97;58.36;97232.28;5015269;28;20204;-26
2023/11/07 01:14:57;;;;;;;1.20;1.10;;;;;;;21.97;58.63;97234.84;5017169;28;20198;-28
2023/11/07 01:17:23;;;;;;;1.10;1.10;;;;;;;21.97;58.57;97237.41;5012243;28;20582;-40
2023/11/07 01:19:50;;;;;;;1.20;1.10;;;;;;;21.97;58.45;97237.41;5012706;28;20198;-27
2023/11/07 01:22:17;;;;;;;1.37;1.30;;;;;;;21.95;58.46;97236.50;5010907;28;20218;-26
2023/11/07 01:24:44;;;;;;;1.10;1.10;;;;;;;21.96;58.71;97238.25;5015784;28;20198;-29
2023/11/07 01:27:11;;;;;;;1.10;1.10;;;;;;;21.96;58.39;97243.34;5023191;28;20708;-26
2023/11/07 01:29:39;;;;;;;1.20;1.17;;;;;;;21.93;58.53;97236.47;5021336;28;20197;-26
2023/11/07 01:32:06;;;;;;;1.00;1.00;;;;;;;21.96;58.46;97239.09;5012581;28;20638;-26
2023/11/07 01:34:32;;;;;;;1.47;1.37;;;;;;;21.97;58.15;97232.28;5021322;28;20217;-26
2023/11/07 01:36:59;;;;;;;0.93;0.93;;;;;;;21.96;58.08;97231.41;5012972;28;20194;-26
2023/11/07 01:39:26;;;;;;;1.00;1.00;;;;;;;21.96;58.51;97231.41;5019473;28;20746;-26
2023/11/07 01:41:52;;;;;;;1.30;1.20;;;;;;;21.97;58.48;97234.84;5020358;28;20195;-27
2023/11/07 01:44:19;;;;;;;1.10;1.10;;;;;;;21.98;58.41;97241.69;5013832;28;20594;-26
2023/11/07 01:46:45;;;;;;;1.40;1.30;;;;;;;21.97;58.50;97240.84;5013132;28;20747;-27
2023/11/07 01:49:12;;;;;;;1.03;1.03;;;;;;;21.97;58.24;97243.41;5012986;28;20199;-26
2023/11/07 01:51:38;;;;;;;1.10;1.10;;;;;;;21.97;58.38;97245.94;5019541;28;20607;-28
2023/11/07 01:54:05;;;;;;;1.00;1.00;;;;;;;21.98;58.29;97241.69;5020850;28;20218;-27
2023/11/07 01:56:32;;;;;;;1.10;1.10;;;;;;;21.97;58.42;97238.28;5018700;28;20204;-26
2023/11/07 01:58:58;;;;;;;1.17;1.10;;;;;;;21.96;58.40;97228.00;5009337;28;20198;-26
2023/11/07 02:01:25;;;;;;;1.33;1.23;;;;;;;21.95;58.33;97218.59;5021826;28;20197;-28
2023/11/07 02:03:51;;;;;;;1.10;1.10;;;;;;;21.94;58.31;97217.75;4994731;28;20218;-28
2023/11/07 02:06:19;;;;;;;1.13;1.10;;;;;;;21.94;58.29;97219.41;5013328;28;20251;-29
2023/11/07 02:08:45;;;;;;;1.10;1.00;;;;;;;21.94;58.37;97222.84;5022234;28;20217;-29
2023/11/07 02:11:12;;;;;;;1.10;1.00;;;;;;;21.93;58.41;97212.59;5013125;28;20207;-28
2023/11/07 02:13:38;;;;;;;1.30;1.20;;;;;;;21.95;58.31;97226.25;5019930;28;20252;-26
2023/11/07 02:16:05;;;;;;;1.10;1.10;;;;;;;21.95;58.50;97218.59;5014270;28;20422;-26
2023/11/07 02:18:32;;;;;;;1.10;1.10;;;;;;;21.95;58.17;97223.69;5008517;28;20251;-28
2023/11/07 02:20:59;;;;;;;1.40;1.30;;;;;;;21.95;58.47;97219.47;5013350;28;20237;-27
2023/11/07 02:23:34;;;;;;;1.00;1.00;;;;;;;21.95;58.46;97216.03;5020077;28;20300;-26
2023/11/07 02:26:01;;;;;;;1.23;1.10;;;;;;;21.95;58.50;97216.91;5028034;28;20707;-26
2023/11/07 02:28:27;;;;;;;1.00;1.00;;;;;;;21.95;58.29;97211.78;5009195;28;20325;-27
2023/11/07 02:30:54;;;;;;;1.03;1.03;;;;;;;21.95;58.57;97214.34;5014237;28;20302;-29
2023/11/07 02:33:21;;;;;;;1.07;1.07;;;;;;;21.97;58.72;97206.69;5014702;28;20213;-27
2023/11/07 02:35:48;;;;;;;1.30;1.20;;;;;;;21.95;58.48;97205.78;5018813;28;20210;-26
2023/11/07 02:38:16;;;;;;;1.10;1.00;;;;;;;21.95;58.54;97213.47;5014943;28;20221;-27
2023/11/07 02:40:43;;;;;;;0.90;0.90;;;;;;;21.94;58.54;97204.94;5012504;28;20194;-28
2023/11/07 02:43:10;;;;;;;1.03;1.03;;;;;;;21.94;58.39;97209.19;5014487;28;20218;-26
2023/11/07 02:45:36;;;;;;;1.10;1.10;;;;;;;21.94;58.48;97206.63;5015560;28;20296;-29
2023/11/07 02:48:03;;;;;;;1.00;1.00;;;;;;;21.94;58.35;97201.50;5015600;28;20222;-26
2023/11/07 02:50:31;;;;;;;1.10;1.10;;;;;;;21.94;58.54;97198.94;5016063;28;20226;-26
2023/11/07 02:52:58;;;;;;;1.20;1.20;;;;;;;21.94;58.39;97201.50;5012153;28;20241;-26
2023/11/07 02:55:25;;;;;;;1.10;1.10;;;;;;;21.95;58.41;97203.22;5015196;28;20269;-29
2023/11/07 02:57:51;;;;;;;0.90;0.90;;;;;;;21.94;58.49;97207.50;5018777;28;20252;-27
2023/11/07 03:00:19;;;;;;;1.20;1.10;;;;;;;21.91;58.39;97202.31;5020850;28;20552;-28
2023/11/07 03:02:46;;;;;;;1.30;1.20;;;;;;;21.95;58.36;97214.34;5016292;28;20630;-27
2023/11/07 03:05:14;;;;;;;1.00;1.00;;;;;;;21.95;58.47;97219.47;5020715;28;20203;-30
2023/11/07 03:07:41;;;;;;;1.10;1.10;;;;;;;21.95;58.48;97216.03;5015798;28;20767;-26
2023/11/07 03:10:08;;;;;;;1.10;1.10;;;;;;;21.96;58.53;97215.22;5020517;28;20198;-26
2023/11/07 03:12:35;;;;;;;0.93;0.93;;;;;;;21.96;58.46;97212.66;5018607;28;20202;-28
2023/11/07 03:15:01;;;;;;;1.03;1.03;;;;;;;21.95;58.31;97216.91;5021864;28;20252;-26
2023/11/07 03:17:28;;;;;;;1.10;1.10;;;;;;;21.95;58.55;97216.91;5018192;28;20289;-27
2023/11/07 03:19:54;;;;;;;1.00;1.00;;;;;;;21.94;58.38;97212.63;5019805;28;20696;-26
2023/11/07 03:22:21;;;;;;;1.00;1.00;;;;;;;21.95;58.29;97218.59;5021510;28;20744;-29
2023/11/07 03:24:48;;;;;;;1.00;1.00;;;;;;;21.93;58.48;97212.59;5019085;28;20206;-28
2023/11/07 03:27:15;;;;;;;1.03;1.03;;;;;;;21.88;58.51;97209.03;5022422;28;20209;-28
2023/11/07 03:29:42;;;;;;;1.10;1.10;;;;;;;21.93;58.33;97210.03;5023430;28;20656;-26
2023/11/07 03:32:09;;;;;;;0.90;0.90;;;;;;;21.94;58.46;97214.31;5014751;28;20202;-27
2023/11/07 03:34:35;;;;;;;1.07;1.00;;;;;;;21.84;58.58;97195.31;5010070;28;20628;-27
2023/11/07 03:37:02;;;;;;;1.10;1.10;;;;;;;21.93;58.54;97215.97;5015946;28;20623;-26
2023/11/07 03:39:29;;;;;;;1.20;1.10;;;;;;;21.93;58.41;97210.03;5023007;28;20641;-28
2023/11/07 03:41:55;;;;;;;1.20;1.10;;;;;;;21.93;58.46;97213.44;5016021;28;20239;-26
2023/11/07 03:44:22;;;;;;;1.27;1.17;;;;;;;21.93;58.48;97210.88;5012819;28;20226;-26
2023/11/07 03:46:49;;;;;;;1.00;1.00;;;;;;;21.94;58.32;97214.31;5014869;28;20241;-26
2023/11/07 03:49:16;;;;;;;1.20;1.10;;;;;;;21.94;58.23;97219.41;5014459;28;20222;-31
2023/11/07 03:51:44;;;;;;;1.00;1.00;;;;;;;21.94;58.34;97217.75;5016016;28;20194;-26
2023/11/07 03:54:10;;;;;;;1.00;1.00;;;;;;;21.95;58.37;97218.59;5008991;28;20308;-26
2023/11/07 03:56:37;;;;;;;1.00;1.00;;;;;;;21.95;58.48;97224.56;5013161;28;20597;-27
2023/11/07 03:59:04;;;;;;;1.00;1.00;;;;;;;21.93;58.88;97221.09;5014660;28;20194;-26
2023/11/07 04:01:37;;;;;;;0.90;0.90;;;;;;;21.93;58.31;97228.78;5016700;28;20649;-28
2023/11/07 04:04:04;;;;;;;0.90;0.90;;;;;;;21.92;58.33;97224.50;5013906;28;20222;-30
2023/11/07 04:06:30;;;;;;;0.97;0.97;;;;;;;21.93;58.32;97236.47;5012747;28;20202;-27
2023/11/07 04:09:00;;;;;;;1.00;1.00;;;;;;;21.93;58.21;97228.78;5019751;28;20226;-26
2023/11/07 04:11:27;;;;;;;1.00;1.00;;;;;;;21.93;58.40;97235.63;5022344;28;20268;-26
2023/11/07 04:13:54;;;;;;;1.00;1.00;;;;;;;21.93;58.18;97235.63;5016635;28;20226;-26
2023/11/07 04:16:20;;;;;;;1.17;1.07;;;;;;;21.95;58.45;97249.28;5021415;28;20212;-27
2023/11/07 04:18:47;;;;;;;1.10;1.10;;;;;;;21.96;58.18;97245.91;5015386;28;20229;-31
2023/11/07 04:21:14;;;;;;;1.07;1.07;;;;;;;21.97;58.43;97247.63;5014235;28;20209;-27
2023/11/07 04:23:41;;;;;;;1.00;1.00;;;;;;;21.98;58.40;97254.47;5016628;28;20226;-26
2023/11/07 04:26:07;;;;;;;1.00;1.00;;;;;;;21.98;58.44;97255.34;5018249;28;20210;-26
2023/11/07 04:28:37;;;;;;;1.00;1.00;;;;;;;21.98;58.33;97255.34;5016181;28;20704;-26
2023/11/07 04:31:04;;;;;;;1.00;1.00;;;;;;;21.99;58.37;97251.09;5018585;28;20205;-26
2023/11/07 04:33:33;;;;;;;1.00;1.00;;;;;;;21.99;58.15;97257.06;5013947;28;20250;-26
2023/11/07 04:36:00;;;;;;;0.90;0.90;;;;;;;21.99;58.38;97259.63;5016785;28;20620;-26
2023/11/07 04:38:28;;;;;;;1.00;1.00;;;;;;;21.99;58.42;97258.78;5014098;28;20252;-29
2023/11/07 04:40:55;;;;;;;1.20;1.17;;;;;;;21.97;58.22;97253.63;5016906;28;20213;-28
2023/11/07 04:43:22;;;;;;;0.90;0.90;;;;;;;21.97;58.15;97250.19;5012890;28;20218;-26
2023/11/07 04:45:49;;;;;;;1.13;1.10;;;;;;;21.97;58.39;97250.19;5021694;28;20307;-26
2023/11/07 04:48:16;;;;;;;1.13;1.03;;;;;;;21.96;58.28;97251.03;5014865;28;20226;-28
2023/11/07 04:50:44;;;;;;;0.93;0.93;;;;;;;21.96;58.11;97257.00;5020761;28;20198;-26
2023/11/07 04:53:11;;;;;;;0.90;0.90;;;;;;;21.97;58.12;97253.63;5017647;28;20276;-26
2023/11/07 04:55:37;;;;;;;1.00;1.00;;;;;;;21.96;58.35;97251.03;5013992;28;20253;-26
2023/11/07 04:58:04;;;;;;;1.30;1.07;;;;;;;21.95;58.21;97249.28;5017426;28;20194;-27
2023/11/07 05:00:30;;;;;;;0.90;0.90;;;;;;;21.95;58.27;97255.28;5012316;28;20230;-27
2023/11/07 05:02:57;;;;;;;0.87;0.87;;;;;;;21.96;58.28;97253.59;5019007;28;20245;-26
2023/11/07 05:05:24;;;;;;;0.90;0.90;;;;;;;21.96;58.53;97251.88;5014752;28;20193;-26
2023/11/07 05:07:50;;;;;;;1.00;1.00;;;;;;;21.96;58.22;97257.00;5013539;28;20263;-31
2023/11/07 05:10:17;;;;;;;1.00;1.00;;;;;;;21.96;58.22;97263.81;5011261;28;20241;-27
2023/11/07 05:12:43;;;;;;;1.10;1.10;;;;;;;21.96;58.34;97257.00;5014418;28;20199;-26
2023/11/07 05:15:10;;;;;;;0.90;0.90;;;;;;;21.96;58.15;97254.44;5016270;28;20205;-26
2023/11/07 05:17:38;;;;;;;1.00;1.00;;;;;;;21.96;58.26;97257.00;5018239;28;20293;-26
2023/11/07 05:20:08;;;;;;;0.97;0.97;;;;;;;21.95;58.32;97255.28;5024073;28;20210;-32
2023/11/07 05:22:34;;;;;;;1.00;0.90;;;;;;;21.95;58.30;97247.59;5016728;28;20737;-26
2023/11/07 05:25:01;;;;;;;1.20;1.10;;;;;;;21.95;58.70;97249.28;5014937;28;20631;-28
2023/11/07 05:27:28;;;;;;;1.00;1.00;;;;;;;21.95;58.21;97256.97;5016263;28;20239;-26
2023/11/07 05:29:54;;;;;;;0.80;0.80;;;;;;;21.94;58.12;97256.13;5017534;28;20279;-29
2023/11/07 05:32:21;;;;;;;1.03;1.03;;;;;;;21.94;58.21;97257.81;5018366;28;20594;-31
2023/11/07 05:34:48;;;;;;;1.90;1.10;;;;;;;21.93;56.35;97254.38;5011840;28;20230;-26
2023/11/07 05:37:16;;;;;;;1.37;1.27;;;;;;;21.92;55.70;97262.00;5013550;28;20238;-26
2023/11/07 05:39:44;;;;;;;1.40;1.20;;;;;;;21.92;54.79;97268.00;5011026;28;20201;-29
2023/11/07 05:42:12;;;;;;;6.10;1.43;;;;;;;21.90;53.24;97256.00;5011900;28;20234;-27
2023/11/07 05:44:39;;;;;;;3.13;1.47;;;;;;;21.90;51.12;97256.84;5016169;28;20214;-26
2023/11/07 05:47:06;;;;;;;1.87;1.50;;;;;;;21.88;51.72;97255.97;5016509;28;20233;-30
2023/11/07 05:49:34;;;;;;;1.77;1.50;;;;;;;21.87;49.18;97248.25;5013933;28;20609;-26
2023/11/07 05:52:03;;;;;;;3.23;1.17;;;;;;;21.85;47.53;97245.66;5014995;28;20237;-28
2023/11/07 05:54:30;;;;;;;3.43;1.77;;;;;;;21.83;46.03;97239.63;5016164;28;20222;-26
2023/11/07 05:56:56;;;;;;;3.03;1.30;;;;;;;21.81;45.49;97240.41;5014385;28;20206;-28
2023/11/07 05:59:25;;;;;;;4.57;1.50;;;;;;;21.80;45.02;97246.38;5014733;28;20194;-27
2023/11/07 06:01:52;;;;;;;4.93;1.40;;;;;;;21.78;44.38;97251.44;5013196;28;20206;-26
2023/11/07 06:04:49;;;;;;;5.33;1.77;;;;;;;21.76;44.22;97257.38;5015989;28;20220;-26
2023/11/07 06:07:15;;;;;;;2.27;1.67;;;;;;;21.74;43.54;97265.00;5009040;28;20263;-27
2023/11/07 06:09:42;;;;;;;4.57;1.67;;;;;;;21.69;44.17;97262.31;5011941;28;20272;-27
2023/11/07 06:12:09;;;;;;;3.47;1.60;;;;;;;21.69;43.92;97263.97;5012418;28;20202;-26
2023/11/07 06:14:38;;;;;;;6.10;1.90;;;;;;;21.67;44.35;97263.06;5012632;28;20325;-29
2023/11/07 06:17:04;;;;;;;3.33;1.40;;;;;;;21.66;45.14;97267.34;5019610;28;20205;-27
2023/11/07 06:19:31;;;;;;;1.73;1.40;;;;;;;21.67;45.26;97271.63;5016414;28;20564;-31
2023/11/07 06:21:57;;;;;;;4.10;1.60;;;;;;;21.66;45.58;97272.44;5013972;28;20203;-27
2023/11/07 06:24:24;;;;;;;2.53;1.50;;;;;;;21.67;45.86;97279.28;5019100;28;20264;-27
2023/11/07 06:26:51;;;;;;;5.23;1.53;;;;;;;21.68;46.53;97282.72;5014574;28;20289;-26
2023/11/07 06:29:17;;;;;;;5.67;1.43;;;;;;;21.66;46.24;97282.69;5015919;28;20214;-28
2023/11/07 06:31:45;;;;;;;5.70;1.70;;;;;;;21.68;45.85;97277.59;5013039;28;20205;-29
2023/11/07 06:34:14;;;;;;;2.67;1.50;;;;;;;21.68;46.39;97283.56;5018008;28;20221;-26
2023/11/07 06:36:41;;;;;;;2.13;1.60;;;;;;;21.67;46.88;97281.84;5020342;28;20202;-26
2023/11/07 06:39:07;;;;;;;2.67;1.30;;;;;;;21.68;47.66;97281.00;5018882;28;20197;-26
2023/11/07 06:41:34;;;;;;;4.13;1.60;;;;;;;21.69;48.23;97282.75;5019373;28;20198;-28
2023/11/07 06:44:01;;;;;;;2.60;1.37;;;;;;;21.69;48.12;97287.00;5015233;28;20217;-28
2023/11/07 06:46:27;;;;;;;3.90;1.60;;;;;;;21.69;48.42;97285.31;5006819;28;20584;-26
2023/11/07 06:48:54;;;;;;;2.43;1.67;;;;;;;21.71;49.07;97290.47;5018025;28;20217;-26
2023/11/07 06:51:24;;;;;;;6.10;1.87;;;;;;;21.67;46.41;97283.53;5022584;28;20199;-26
2023/11/07 06:53:52;;;;;;;3.47;1.83;;;;;;;21.69;46.39;97287.88;5017045;28;20226;-26
2023/11/07 06:56:18;;;;;;;4.57;1.90;;;;;;;21.70;47.52;97287.03;5022252;28;20336;-26
2023/11/07 06:58:45;;;;;;;4.87;1.63;;;;;;;21.73;48.03;97290.50;5023131;28;20202;-29
2023/11/07 07:01:14;;;;;;;3.33;1.60;;;;;;;21.73;48.34;97287.94;5021901;28;20204;-28
2023/11/07 07:03:41;;;;;;;3.90;1.67;;;;;;;21.73;48.87;97293.91;5021961;28;20218;-26
2023/11/07 07:06:07;;;;;;;3.03;1.70;;;;;;;21.73;46.74;97293.06;5016100;28;20202;-28
2023/11/07 07:08:34;;;;;;;6.97;1.80;;;;;;;21.70;46.18;97293.84;5024473;28;20233;-27
2023/11/07 07:11:01;;;;;;;10.20;3.67;;;;;;;21.68;45.22;97296.34;5020115;28;20913;-26
2023/11/07 07:13:27;;;;;;;8.70;5.17;;;;;;;21.67;44.30;97291.19;5022473;28;20221;-28
2023/11/07 07:15:54;;;;;;;17.17;6.37;;;;;;;21.64;43.62;97291.13;5018151;28;20287;-26
2023/11/07 07:18:22;;;;;;;10.27;6.00;;;;;;;21.61;43.60;97294.47;5012709;28;20249;-27
2023/11/07 07:20:53;;;;;;;10.93;6.03;;;;;;;21.61;43.60;97299.59;5015215;28;20264;-27
2023/11/07 07:23:24;;;;;;;11.17;6.33;;;;;;;21.60;44.49;97302.13;5008308;28;20219;-29
2023/11/07 07:25:55;;;;;;;9.63;6.20;;;;;;;21.60;45.97;97304.66;5018838;28;20289;-26
2023/11/07 07:28:25;;;;;;;15.20;6.13;;;;;;;21.60;46.54;97304.66;5016793;28;20202;-26
2023/11/07 07:30:52;;;;;;;12.00;6.10;;;;;;;21.60;46.76;97297.00;5013985;28;20203;-26
2023/11/07 07:33:19;;;;;;;8.33;5.53;;;;;;;21.61;47.03;97298.72;5013393;28;20361;-27
2023/11/07 07:35:46;;;;;;;10.40;5.77;;;;;;;21.61;47.64;97303.84;5008700;28;20198;-26
2023/11/07 07:38:13;;;;;;;9.30;5.77;;;;;;;21.61;46.21;97308.94;5017549;28;20739;-26
2023/11/07 07:40:41;;;;;;;9.03;5.20;;;;;;;21.62;46.77;97311.53;5018166;28;20209;-26
2023/11/07 07:43:11;;;;;;;9.67;5.37;;;;;;;21.62;47.41;97313.25;5016997;28;20218;-36
2023/11/07 07:45:44;;;;;;;8.43;5.53;;;;;;;21.64;47.83;97307.34;5017110;28;20206;-26
2023/11/07 07:48:10;;;;;;;7.93;5.13;;;;;;;21.66;47.93;97302.28;5016307;28;20210;-26
2023/11/07 07:50:42;;;;;;;6.63;4.87;;;;;;;21.66;48.63;97297.16;5016755;28;20226;-26
2023/11/07 07:53:10;;;;;;;9.13;5.57;;;;;;;21.67;48.61;97297.19;5009251;28;20234;-29
2023/11/07 07:55:42;;;;;;;8.03;5.17;;;;;;;21.69;49.02;97292.13;5020339;28;20194;-27
2023/11/07 07:58:10;;;;;;;6.77;4.90;;;;;;;21.70;49.32;97293.84;5009464;28;20254;-27
2023/11/07 08:00:38;;;;;;;5.83;4.47;;;;;;;21.71;49.50;97293.03;5012656;28;20244;-34
2023/11/07 08:03:08;;;;;;;7.67;5.10;;;;;;;21.71;49.53;97300.69;5002193;28;20233;-31
2023/11/07 08:05:38;;;;;;;7.03;4.63;;;;;;;21.71;49.64;97300.69;5003625;28;20298;-34
2023/11/07 08:08:08;;;;;;;7.30;4.50;;;;;;;21.73;49.48;97303.28;5006807;28;20264;-27
2023/11/07 08:10:35;;;;;;;6.60;4.17;;;;;;;21.73;50.09;97306.69;5006796;28;20246;-27
2023/11/07 08:13:05;;;;;;;6.70;4.70;;;;;;;21.75;49.93;97309.31;5005327;28;20297;-31
2023/11/07 08:15:35;;;;;;;8.00;4.50;;;;;;;21.77;50.25;97312.81;5003293;28;20213;-29
2023/11/07 08:18:06;;;;;;;6.03;3.80;;;;;;;21.77;50.28;97300.00;5004750;28;20202;-26
2023/11/07 08:20:35;;;;;;;6.93;4.50;;;;;;;21.79;50.42;97314.56;5002833;28;20548;-26
2023/11/07 08:23:02;;;;;;;6.37;4.37;;;;;;;21.81;50.55;97312.91;5003680;28;20210;-26
2023/11/07 08:25:28;;;;;;;7.30;4.10;;;;;;;21.83;50.80;97312.94;4999636;28;20214;-27
2023/11/07 08:27:55;;;;;;;4.83;3.73;;;;;;;21.85;50.84;97316.44;5003730;28;20206;-30
2023/11/07 08:30:24;;;;;;;5.67;3.83;;;;;;;21.86;50.78;97321.59;4995162;28;20684;-36
2023/11/07 08:32:51;;;;;;;8.10;4.10;;;;;;;21.87;50.96;97320.75;5002255;28;20214;-34
2023/11/07 08:35:18;;;;;;;5.20;4.00;;;;;;;21.90;51.12;97307.19;4998804;28;20661;-31
2023/11/07 08:37:49;;;;;;;9.17;3.83;;;;;;;21.90;51.04;97315.69;4996280;28;20234;-29
2023/11/07 08:40:21;;;;;;;4.87;3.77;;;;;;;21.90;51.09;97308.03;5000714;28;20202;-41
2023/11/07 08:42:50;;;;;;;5.73;3.97;;;;;;;21.91;51.21;97298.66;4996845;28;20328;-33
2023/11/07 08:45:21;;;;;;;4.97;3.73;;;;;;;21.91;51.22;97294.44;4998432;28;20213;-29
2023/11/07 08:47:51;;;;;;;6.43;3.97;;;;;;;21.86;51.29;97283.19;4995745;28;20220;-36
2023/11/07 08:50:19;;;;;;;5.60;3.70;;;;;;;21.93;51.47;97299.59;4998878;28;20305;-36
2023/11/07 08:52:52;;;;;;;4.63;3.33;;;;;;;21.95;51.06;97297.91;4999588;28;20280;-27
2023/11/07 08:55:19;;;;;;;5.50;3.60;;;;;;;21.95;51.64;97301.34;4998996;28;20219;-29
2023/11/07 08:57:46;;;;;;;5.90;3.33;;;;;;;21.97;51.65;97303.94;4999613;28;20692;-29
2023/11/07 09:00:13;;;;;;;5.20;3.50;;;;;;;21.95;51.80;97305.56;4999771;28;20644;-27
2023/11/07 09:02:41;;;;;;;5.60;3.37;;;;;;;21.98;51.79;97315.88;4999386;28;20302;-27
2023/11/07 09:05:08;;;;;;;4.83;3.43;;;;;;;21.98;51.75;97315.88;4999559;28;20728;-30
2023/11/07 09:07:35;;;;;;;4.10;3.30;;;;;;;21.92;51.90;97300.38;4999078;28;20583;-31
2023/11/07 09:10:02;;;;;;;5.33;3.67;;;;;;;22.00;51.86;97315.13;4998885;28;20227;-35
2023/11/07 09:12:29;;;;;;;3.97;3.10;;;;;;;22.01;52.10;97318.50;4999071;28;20206;-31
2023/11/07 09:14:56;;;;;;;3.73;2.93;;;;;;;22.01;51.59;97318.50;4997360;28;20699;-34
2023/11/07 09:17:22;;;;;;;6.33;3.33;;;;;;;22.01;52.01;97318.50;5000456;28;20219;-34
2023/11/07 09:19:49;;;;;;;5.20;3.33;;;;;;;22.01;51.83;97323.63;4998934;28;20214;-27
2023/11/07 09:22:15;;;;;;;4.30;2.83;;;;;;;22.00;52.14;97327.03;4998461;28;20280;-28
2023/11/07 09:24:43;;;;;;;4.33;3.40;;;;;;;22.01;52.04;97333.88;4994971;28;20779;-34
2023/11/07 09:27:10;;;;;;;3.43;3.00;;;;;;;22.00;52.25;97327.91;5000100;28;20214;-29
2023/11/07 09:29:40;;;;;;;6.33;3.23;;;;;;;22.00;52.08;97330.47;4998209;28;20238;-27
2023/11/07 09:32:07;;;;;;;5.20;3.30;;;;;;;22.01;52.27;97328.75;4994879;28;20295;-33
2023/11/07 09:34:37;;;;;;;4.60;3.33;;;;;;;22.00;52.33;97320.22;4997736;28;20246;-29
2023/11/07 09:37:05;;;;;;;3.83;3.20;;;;;;;22.00;52.20;97312.56;4997369;28;20206;-32
2023/11/07 09:39:32;;;;;;;4.30;3.20;;;;;;;22.02;52.21;97327.94;4998444;28;20202;-27
2023/11/07 09:41:58;;;;;;;4.53;3.50;;;;;;;22.01;52.20;97327.06;4999555;28;20231;-31
2023/11/07 09:44:27;;;;;;;4.07;3.40;;;;;;;21.07;52.55;97195.06;5039880;22;20234;-91
2023/11/07 09:46:54;;;;;;;4.57;3.40;;;;;;;18.30;52.08;96700.38;5031375;28;20177;-90
2023/11/07 09:49:20;;;;;;;5.10;3.70;;;;;;;19.03;52.00;96828.88;5010329;28;20226;-92
2023/11/07 09:51:47;;;;;;;3.93;3.27;;;;;;;20.84;51.67;97145.91;5004396;28;20210;-90
2023/11/07 09:54:15;;;;;;;4.53;3.37;;;;;;;19.44;51.79;96873.38;5000454;28;20183;-90
2023/11/07 09:56:43;;;;;;;4.53;3.37;;;;;;;21.95;52.24;97303.00;4987297;28;20213;-90
2023/11/07 09:59:23;;;;;;;3.83;3.17;;;;;;;20.16;52.46;97010.50;5009011;28;20218;-90
2023/11/07 10:01:51;;;;;;;4.20;3.00;;;;;;;18.50;52.39;96709.44;5004474;28;20191;-90
2023/11/07 10:04:19;;;;;;;3.77;3.23;;;;;;;17.78;52.38;96620.84;4987865;28;20178;-88
2023/11/07 10:06:47;;;;;;;4.50;3.13;;;;;;;18.81;52.81;96798.56;5021635;28;20191;-90
2023/11/07 10:09:16;;;;;;;4.00;2.87;;;;;;;18.95;52.53;96825.25;5019155;28;20234;-90
2023/11/07 10:11:49;;;;;;;4.73;3.10;;;;;;;18.88;52.74;96771.56;5006819;28;20281;-89
2023/11/07 10:14:18;;;;;;;3.90;3.10;;;;;;;19.01;53.02;96834.78;5007411;28;20190;-91
2023/11/07 10:16:44;;;;;;;3.57;2.90;;;;;;;19.05;53.05;96796.69;4987018;28;20211;-89
2023/11/07 10:19:12;;;;;;;3.40;3.00;;;;;;;19.99;52.90;96991.31;4998402;28;20206;-90
2023/11/07 10:21:39;;;;;;;4.87;3.20;;;;;;;19.51;53.03;96900.75;4986765;28;20190;-87
2023/11/07 10:24:06;;;;;;;4.03;2.90;;;;;;;18.99;53.12;96791.44;5002335;28;20210;-90
2023/11/07 10:26:52;;;;;;;5.53;3.30;;;;;;;21.98;53.32;97285.19;4954487;28;20221;-33
2023/11/07 10:29:32;;;;;;;3.77;2.93;;;;;;;21.97;53.39;97286.91;4997186;28;20210;-47
2023/11/07 10:32:10;;;;;;;3.90;2.90;;;;;;;21.96;53.15;97282.59;5000210;28;20593;-42
2023/11/07 10:34:38;;;;;;;4.57;3.20;;;;;;;21.97;52.84;97286.03;4999303;28;20283;-43
2023/11/07 10:37:05;;;;;;;5.23;3.23;;;;;;;21.97;52.89;97273.22;4996444;28;20245;-43
2023/11/07 10:39:33;;;;;;;4.77;2.87;;;;;;;21.97;53.09;97281.78;4995323;28;20210;-44
2023/11/07 10:42:20;;;;;;;5.00;3.03;;;;;;;21.97;53.32;97283.47;4997697;28;20213;-35
2023/11/07 10:44:48;;;;;;;3.60;2.77;;;;;;;21.97;53.23;97279.22;4995069;28;20225;-28
2023/11/07 10:47:16;;;;;;;7.33;2.97;;;;;;;21.97;53.40;97273.22;5036337;22;20315;-25
2023/11/07 10:49:48;;;;;;;3.60;2.80;;;;;;;21.97;53.46;97288.56;5035635;28;20303;-24
2023/11/07 10:52:17;;;;;;;3.27;2.70;;;;;;;21.97;53.51;97279.22;5036595;28;20320;-24
2023/11/07 10:54:43;;;;;;;3.50;2.63;;;;;;;21.98;53.84;97268.13;5036269;28;20208;-23
2023/11/07 10:57:10;;;;;;;4.30;2.50;;;;;;;21.97;53.83;97271.53;5036054;28;20809;-25
2023/11/07 10:59:36;;;;;;;3.83;2.60;;;;;;;21.96;53.63;97263.81;5061367;28;20266;-25
2023/11/07 11:02:04;;;;;;;3.47;2.80;;;;;;;21.97;53.80;97268.09;5019614;28;20213;-25
2023/11/07 11:04:33;;;;;;;3.00;2.37;;;;;;;21.95;53.75;97262.94;5018589;28;20220;-25
2023/11/07 11:07:01;;;;;;;3.30;2.73;;;;;;;21.95;53.79;97254.41;5035390;28;20221;-23
2023/11/07 11:09:28;;;;;;;3.30;2.53;;;;;;;21.92;53.75;97250.09;5033443;28;20215;-24
2023/11/07 11:11:58;;;;;;;3.13;2.67;;;;;;;21.93;54.12;97245.84;5025537;28;20290;-26
2023/11/07 11:14:26;;;;;;;2.97;2.40;;;;;;;21.95;53.95;97254.41;5044782;28;20205;-26
2023/11/07 11:16:55;;;;;;;3.20;2.70;;;;;;;21.92;54.00;97244.97;5046314;28;20788;-25
2023/11/07 11:19:23;;;;;;;3.73;2.73;;;;;;;21.95;54.23;97241.59;5025819;28;20671;-26
2023/11/07 11:22:16;;;;;;;4.90;2.83;;;;;;;21.96;54.21;97241.66;5047016;28;20659;-26
2023/11/07 11:25:03;;;;;;;3.40;2.20;;;;;;;21.95;53.97;97239.94;5045258;28;20262;-26
2023/11/07 11:27:33;;;;;;;2.97;2.53;;;;;;;21.88;54.17;97230.38;5035758;28;20225;-25
2023/11/07 11:30:00;;;;;;;3.77;2.40;;;;;;;21.95;54.19;97239.94;5025041;28;20213;-25
2023/11/07 11:32:28;;;;;;;3.53;2.57;;;;;;;21.95;54.19;97239.06;5044774;28;20255;-25
2023/11/07 11:35:16;;;;;;;2.80;2.37;;;;;;;21.95;54.43;97239.94;5045451;28;20200;-23
2023/11/07 11:38:20;;;;;;;2.83;2.40;;;;;;;21.95;54.31;97236.50;5050156;28;20282;-26